Time;durP1;ratioP1;P1;durP2;ratioP2;P2;SDS_P1;SDS_P2;PMS_P1;PMS_P2;Temp;Humidity;BMP_temperature;BMP_pressure;BME280_temperature;BME280_humidity;BME280_pressure;Samples;Min_cycle;Max_cycle;Signal;HPM_P1;HPM_P2
2022/03/30 00:01:00;;;;;;;27.60;13.07;;;8.00;75.40;;;;;;5049610;28;20045;-67
2022/03/30 00:03:27;;;;;;;21.10;11.68;;;8.00;75.50;;;;;;5049461;28;20048;-68
2022/03/30 00:05:52;;;;;;;24.10;12.40;;;8.00;75.60;;;;;;5048773;28;20052;-68
2022/03/30 00:08:18;;;;;;;25.23;13.68;;;7.90;75.60;;;;;;5049339;28;20580;-69
2022/03/30 00:10:43;;;;;;;27.15;12.88;;;8.00;75.60;;;;;;5049979;28;20045;-68
2022/03/30 00:13:09;;;;;;;27.38;12.75;;;7.90;75.60;;;;;;5049873;28;20071;-68
2022/03/30 00:15:35;;;;;;;30.10;13.88;;;7.90;75.70;;;;;;5060167;28;20045;-68
2022/03/30 00:18:00;;;;;;;23.88;12.82;;;7.90;75.70;;;;;;5048957;28;20152;-68
2022/03/30 00:20:26;;;;;;;25.10;12.55;;;8.00;75.60;;;;;;5049576;28;20040;-68
2022/03/30 00:22:52;;;;;;;23.00;12.05;;;7.90;75.60;;;;;;5043744;28;20110;-68
2022/03/30 00:25:20;;;;;;;30.02;13.77;;;7.90;75.60;;;;;;5066054;28;20412;-68
2022/03/30 00:27:46;;;;;;;30.55;13.05;;;8.00;75.60;;;;;;5069059;28;20076;-68
2022/03/30 00:30:14;;;;;;;28.25;13.40;;;7.90;75.60;;;;;;5049144;28;20077;-68
2022/03/30 00:32:41;;;;;;;26.65;12.77;;;7.90;75.70;;;;;;5047919;28;20091;-68
2022/03/30 00:35:08;;;;;;;29.85;14.55;;;7.90;75.70;;;;;;5051244;28;20047;-68
2022/03/30 00:37:34;;;;;;;32.78;13.80;;;7.90;75.80;;;;;;5068797;28;20055;-68
2022/03/30 00:40:01;;;;;;;25.95;13.15;;;7.90;75.80;;;;;;5051336;28;20045;-68
2022/03/30 00:42:27;;;;;;;30.17;13.77;;;7.90;75.80;;;;;;5049370;28;20072;-68
2022/03/30 00:44:54;;;;;;;30.95;13.32;;;7.90;75.90;;;;;;5048889;28;20088;-68
2022/03/30 00:47:23;;;;;;;30.35;13.05;;;7.90;76.00;;;;;;5050944;28;20128;-68
2022/03/30 00:49:50;;;;;;;25.15;12.60;;;8.00;76.00;;;;;;5063494;28;20043;-68
2022/03/30 00:52:16;;;;;;;25.85;13.07;;;7.90;76.10;;;;;;5073043;28;20044;-68
2022/03/30 00:54:44;;;;;;;25.10;13.43;;;7.90;76.30;;;;;;5068691;28;20067;-68
2022/03/30 00:57:12;;;;;;;29.20;12.13;;;8.00;76.30;;;;;;5073053;28;20075;-68
2022/03/30 00:59:40;;;;;;;27.50;13.77;;;7.90;76.60;;;;;;5058827;28;20048;-68
2022/03/30 01:02:07;;;;;;;24.58;13.25;;;7.90;76.70;;;;;;5052907;28;20049;-68
2022/03/30 01:04:32;;;;;;;32.72;14.35;;;7.80;76.80;;;;;;5062244;28;20064;-66
2022/03/30 01:06:59;;;;;;;24.67;13.40;;;7.80;76.80;;;;;;5052244;28;20053;-67
2022/03/30 01:09:25;;;;;;;21.95;13.40;;;7.80;76.90;;;;;;5050988;28;20041;-67
2022/03/30 01:11:55;;;;;;;21.45;12.98;;;7.80;77.00;;;;;;5052080;28;20056;-67
2022/03/30 01:14:22;;;;;;;31.77;14.63;;;7.80;77.00;;;;;;5052306;28;20069;-67
2022/03/30 01:16:48;;;;;;;27.55;13.40;;;7.80;77.00;;;;;;5050644;28;20045;-67
2022/03/30 01:19:14;;;;;;;23.88;14.05;;;7.80;77.10;;;;;;5052114;28;20771;-67
2022/03/30 01:21:41;;;;;;;31.67;15.73;;;7.80;77.00;;;;;;5061983;28;20179;-69
2022/03/30 01:24:08;;;;;;;22.45;13.93;;;7.80;77.10;;;;;;5062713;28;20040;-68
2022/03/30 01:26:35;;;;;;;28.13;13.95;;;7.80;77.20;;;;;;5071563;28;20543;-68
2022/03/30 01:29:01;;;;;;;26.25;13.98;;;7.80;77.30;;;;;;5066938;28;20044;-68
2022/03/30 01:34:11;;;;;;;26.55;13.70;;;7.90;77.40;;;;;;5051971;28;20052;-68
2022/03/30 01:36:37;;;;;;;27.48;15.23;;;7.90;77.40;;;;;;5051406;28;20401;-68
2022/03/30 01:39:04;;;;;;;31.67;15.85;;;7.90;77.50;;;;;;5053502;28;20386;-68
2022/03/30 01:41:30;;;;;;;29.13;14.40;;;7.90;77.50;;;;;;5051596;28;20041;-67
2022/03/30 01:43:56;;;;;;;30.63;14.40;;;7.90;77.80;;;;;;5051778;28;20465;-68
2022/03/30 01:46:23;;;;;;;24.10;13.07;;;7.90;77.90;;;;;;5051608;28;20624;-68
2022/03/30 01:48:49;;;;;;;23.17;12.65;;;7.90;77.80;;;;;;5054018;28;20053;-68
2022/03/30 01:51:15;;;;;;;25.17;13.52;;;7.80;78.10;;;;;;5051483;28;20037;-68
2022/03/30 01:53:41;;;;;;;25.90;14.55;;;7.80;78.20;;;;;;5052698;28;20068;-68
2022/03/30 01:56:07;;;;;;;33.38;13.57;;;7.70;78.40;;;;;;5051237;28;20482;-68
2022/03/30 01:58:33;;;;;;;22.50;14.93;;;7.60;78.70;;;;;;5051283;28;20044;-68
2022/03/30 02:00:58;;;;;;;25.25;14.68;;;7.60;78.80;;;;;;5049624;28;20148;-68
2022/03/30 02:03:25;;;;;;;36.88;15.00;;;7.70;78.80;;;;;;5055295;28;20041;-68
2022/03/30 02:05:52;;;;;;;31.58;15.98;;;7.60;79.00;;;;;;5059402;28;20064;-68
2022/03/30 02:08:18;;;;;;;30.98;14.50;;;7.60;79.20;;;;;;5054951;28;20055;-68
2022/03/30 02:10:44;;;;;;;36.88;17.25;;;7.60;79.30;;;;;;5054987;28;20413;-68
2022/03/30 02:13:10;;;;;;;27.85;15.77;;;7.50;79.50;;;;;;5052980;28;20509;-69
2022/03/30 02:15:36;;;;;;;33.47;16.02;;;7.50;79.90;;;;;;5070157;28;20056;-67
2022/03/30 02:18:07;;;;;;;33.60;16.13;;;7.40;79.80;;;;;;5049613;28;20048;-68
2022/03/30 02:20:33;;;;;;;33.42;16.88;;;7.50;80.00;;;;;;5050917;28;20041;-68
2022/03/30 02:22:59;;;;;;;23.45;13.75;;;7.40;79.70;;;;;;5050552;28;20132;-68
2022/03/30 02:25:25;;;;;;;17.35;10.50;;;7.40;79.60;;;;;;5050870;28;20132;-68
2022/03/30 02:27:50;;;;;;;21.40;12.05;;;7.50;80.00;;;;;;5033165;28;20045;-68
2022/03/30 02:30:16;;;;;;;19.58;9.85;;;7.40;79.90;;;;;;5052041;28;20049;-68
2022/03/30 02:32:44;;;;;;;15.75;7.65;;;7.50;80.00;;;;;;5049487;28;20433;-68
2022/03/30 02:35:10;;;;;;;8.98;6.15;;;7.50;80.10;;;;;;5068273;28;20060;-68
2022/03/30 02:37:36;;;;;;;8.93;5.75;;;7.50;80.40;;;;;;5050759;28;20099;-68
2022/03/30 02:40:03;;;;;;;8.07;5.22;;;7.50;80.40;;;;;;5051466;28;20044;-67
2022/03/30 02:42:28;;;;;;;11.05;5.40;;;7.50;80.60;;;;;;5049268;28;20126;-68
2022/03/30 02:44:54;;;;;;;9.77;5.32;;;7.50;80.60;;;;;;5052798;28;20079;-68
2022/03/30 02:48:17;;;;;;;13.27;5.38;;;7.50;80.60;;;;;;5051535;28;20048;-68
2022/03/30 02:50:05;;;;;;;5.63;4.85;;;7.50;80.60;;;;;;5050284;28;20044;-68
2022/03/30 02:52:31;;;;;;;11.13;5.32;;;7.40;81.20;;;;;;5050061;28;20041;-68
2022/03/30 02:54:57;;;;;;;5.45;4.40;;;7.40;81.10;;;;;;5048977;28;20053;-68
2022/03/30 02:57:22;;;;;;;8.70;4.13;;;7.40;81.10;;;;;;5050036;28;20128;-68
2022/03/30 02:59:48;;;;;;;4.85;4.45;;;7.30;81.20;;;;;;5050436;28;20428;-68
2022/03/30 03:02:13;;;;;;;8.07;4.55;;;7.30;81.30;;;;;;5053032;28;20045;-68
2022/03/30 03:04:39;;;;;;;6.72;4.20;;;7.30;81.20;;;;;;5048740;28;20057;-68
2022/03/30 03:07:05;;;;;;;6.90;4.68;;;7.20;81.40;;;;;;5049624;28;20092;-67
2022/03/30 03:09:30;;;;;;;7.63;4.72;;;7.20;81.40;;;;;;5048100;28;20517;-68
2022/03/30 03:11:59;;;;;;;5.47;4.97;;;7.20;81.50;;;;;;5047761;28;20387;-68
2022/03/30 03:14:24;;;;;;;7.05;4.78;;;7.20;81.50;;;;;;5049812;28;21278;-68
2022/03/30 03:16:50;;;;;;;6.95;4.38;;;7.20;81.50;;;;;;5049824;28;20559;-68
2022/03/30 03:19:16;;;;;;;5.57;4.68;;;7.20;81.90;;;;;;5049656;28;20037;-68
2022/03/30 03:21:41;;;;;;;7.53;4.40;;;7.20;81.70;;;;;;5050329;28;20064;-68
2022/03/30 03:24:07;;;;;;;6.03;3.92;;;7.20;81.80;;;;;;5051784;28;20049;-67
2022/03/30 03:26:33;;;;;;;5.53;4.07;;;7.20;81.60;;;;;;5050321;28;20110;-67
2022/03/30 03:28:58;;;;;;;5.60;3.72;;;7.20;81.50;;;;;;5049899;28;20045;-68
2022/03/30 03:31:24;;;;;;;3.58;3.30;;;7.10;81.60;;;;;;5047589;28;20120;-68
2022/03/30 03:33:50;;;;;;;3.75;3.38;;;7.10;81.70;;;;;;5049401;28;20063;-68
2022/03/30 03:36:19;;;;;;;7.35;3.10;;;7.00;81.60;;;;;;5060434;28;20087;-67
2022/03/30 03:38:44;;;;;;;3.05;2.85;;;7.00;81.50;;;;;;5069241;28;20573;-67
2022/03/30 03:41:11;;;;;;;3.05;2.80;;;7.00;81.50;;;;;;5055136;28;20051;-69
2022/03/30 03:43:37;;;;;;;4.13;2.92;;;7.00;81.20;;;;;;5049135;28;20123;-68
2022/03/30 03:46:03;;;;;;;3.00;2.70;;;6.90;80.90;;;;;;5060503;28;20091;-68
2022/03/30 03:48:29;;;;;;;3.60;2.50;;;6.90;80.80;;;;;;5067483;28;20080;-68
2022/03/30 03:50:54;;;;;;;2.85;2.65;;;6.90;80.50;;;;;;5059778;28;20053;-68
2022/03/30 03:53:20;;;;;;;5.28;3.75;;;6.80;80.40;;;;;;5050002;28;20045;-68
2022/03/30 03:55:46;;;;;;;2.50;2.30;;;6.80;80.40;;;;;;5048845;28;20116;-67
2022/03/30 03:58:12;;;;;;;4.38;2.80;;;6.80;80.30;;;;;;5049365;28;20355;-68
2022/03/30 04:00:38;;;;;;;3.45;2.80;;;6.70;80.40;;;;;;5052395;28;20048;-68
2022/03/30 04:03:03;;;;;;;2.60;2.40;;;6.70;80.10;;;;;;5048077;28;20045;-69
2022/03/30 04:05:29;;;;;;;3.42;2.40;;;6.60;80.10;;;;;;5049069;28;20060;-68
2022/03/30 04:07:55;;;;;;;2.63;2.42;;;6.60;80.00;;;;;;5049812;28;20130;-67
2022/03/30 04:10:21;;;;;;;4.72;2.40;;;6.70;80.00;;;;;;5054508;28;20043;-68
2022/03/30 04:12:47;;;;;;;3.78;2.83;;;6.80;79.60;;;;;;5064101;28;20040;-68
2022/03/30 04:15:12;;;;;;;2.95;2.33;;;6.70;79.70;;;;;;5050270;28;20029;-67
2022/03/30 04:17:46;;;;;;;2.78;2.40;;;6.60;79.80;;;;;;5029901;28;20038;-67
2022/03/30 04:20:13;;;;;;;2.65;2.30;;;6.60;80.20;;;;;;5039724;28;20485;-68
2022/03/30 04:22:40;;;;;;;2.42;2.22;;;6.50;80.20;;;;;;5062455;28;20049;-67
2022/03/30 04:25:06;;;;;;;5.28;2.50;;;6.60;80.10;;;;;;5051873;28;20525;-67
2022/03/30 04:27:32;;;;;;;2.83;2.25;;;6.50;79.90;;;;;;5051470;28;20045;-67
2022/03/30 04:29:57;;;;;;;4.82;2.40;;;6.50;80.10;;;;;;5051971;28;20048;-68
2022/03/30 04:32:23;;;;;;;2.30;2.10;;;6.60;79.90;;;;;;5052232;28;20041;-67
2022/03/30 04:34:48;;;;;;;4.05;2.67;;;6.50;80.00;;;;;;5052150;28;20041;-67
2022/03/30 04:37:14;;;;;;;3.88;2.40;;;6.40;79.90;;;;;;5064235;28;20043;-66
2022/03/30 04:39:40;;;;;;;3.22;2.22;;;6.50;79.80;;;;;;5059866;28;20044;-65
2022/03/30 04:42:06;;;;;;;4.57;2.50;;;6.40;79.90;;;;;;5054058;28;20468;-66
2022/03/30 04:44:32;;;;;;;4.68;2.15;;;6.40;79.90;;;;;;5070200;28;20033;-65
2022/03/30 04:46:57;;;;;;;3.67;2.40;;;6.40;80.00;;;;;;5055360;28;20056;-66
2022/03/30 04:49:23;;;;;;;5.70;2.50;;;6.40;79.90;;;;;;5063475;28;20040;-66
2022/03/30 04:51:49;;;;;;;6.28;2.35;;;6.40;80.10;;;;;;5050363;28;20060;-65
2022/03/30 04:54:16;;;;;;;5.85;3.05;;;6.50;80.10;;;;;;5054974;28;20067;-65
2022/03/30 04:56:42;;;;;;;2.30;2.10;;;6.40;80.00;;;;;;5056024;28;20048;-66
2022/03/30 04:59:08;;;;;;;5.65;2.40;;;6.40;80.00;;;;;;5052162;28;20052;-65
2022/03/30 05:01:33;;;;;;;4.13;2.20;;;6.40;79.90;;;;;;5052892;28;20044;-67
2022/03/30 05:03:59;;;;;;;4.78;2.17;;;6.40;80.10;;;;;;5052572;28;20057;-66
2022/03/30 05:06:25;;;;;;;2.90;2.30;;;6.40;80.10;;;;;;5070002;28;20052;-66
2022/03/30 05:08:50;;;;;;;3.10;1.95;;;6.40;80.30;;;;;;5056981;28;20139;-66
2022/03/30 05:11:16;;;;;;;3.55;2.20;;;6.40;80.00;;;;;;5053608;28;20041;-66
2022/03/30 05:13:41;;;;;;;4.60;2.00;;;6.40;79.90;;;;;;5059452;28;20400;-67
2022/03/30 05:16:07;;;;;;;3.97;2.45;;;6.40;79.80;;;;;;5053588;28;20448;-67
2022/03/30 05:18:33;;;;;;;3.33;1.90;;;6.40;79.70;;;;;;5051847;28;20048;-67
2022/03/30 05:20:58;;;;;;;3.97;1.83;;;6.30;79.70;;;;;;5052426;28;20476;-68
2022/03/30 05:23:24;;;;;;;3.78;1.90;;;6.30;79.80;;;;;;5051960;28;20119;-68
2022/03/30 05:25:49;;;;;;;3.45;2.20;;;6.30;79.60;;;;;;5050522;28;20080;-67
2022/03/30 05:28:15;;;;;;;4.13;2.30;;;6.30;79.50;;;;;;5051293;28;20037;-67
2022/03/30 05:30:41;;;;;;;3.03;1.90;;;6.30;79.60;;;;;;5051809;28;20049;-66
2022/03/30 05:33:07;;;;;;;3.00;1.83;;;6.20;79.60;;;;;;5051128;28;20120;-67
2022/03/30 05:35:33;;;;;;;4.65;1.75;;;6.30;79.60;;;;;;5051169;28;20057;-68
2022/03/30 05:37:58;;;;;;;8.23;2.00;;;6.30;79.60;;;;;;5051523;28;20131;-68
2022/03/30 05:40:24;;;;;;;3.40;1.65;;;6.20;79.70;;;;;;5051639;28;20037;-68
2022/03/30 05:42:50;;;;;;;2.80;2.20;;;6.20;79.70;;;;;;5049973;28;20029;-67
2022/03/30 05:45:15;;;;;;;3.58;2.05;;;6.20;79.80;;;;;;5051405;28;20123;-68
2022/03/30 05:47:42;;;;;;;3.60;2.40;;;6.20;79.80;;;;;;5049772;28;20433;-68
2022/03/30 05:50:09;;;;;;;4.97;2.10;;;6.30;79.80;;;;;;5051382;28;20843;-67
2022/03/30 05:52:34;;;;;;;4.70;2.38;;;6.30;79.90;;;;;;5050389;28;20041;-68
2022/03/30 05:55:00;;;;;;;6.38;2.13;;;6.30;79.90;;;;;;5050395;28;20046;-69
2022/03/30 05:57:26;;;;;;;2.45;2.20;;;6.30;80.00;;;;;;5050902;28;20048;-68
2022/03/30 05:59:52;;;;;;;5.30;2.60;;;6.40;79.90;;;;;;5051084;28;20052;-68
2022/03/30 06:02:18;;;;;;;2.28;2.08;;;6.40;79.90;;;;;;5050049;28;20494;-68
2022/03/30 06:04:49;;;;;;;4.10;2.45;;;6.50;79.90;;;;;;5050125;28;20103;-69
2022/03/30 06:07:15;;;;;;;5.53;1.98;;;6.50;79.80;;;;;;5050244;28;20067;-68
2022/03/30 06:09:40;;;;;;;6.05;1.95;;;6.60;79.70;;;;;;5050348;28;20048;-68
2022/03/30 06:12:07;;;;;;;4.15;2.40;;;6.60;79.60;;;;;;5050793;28;20131;-66
2022/03/30 06:14:33;;;;;;;4.88;2.22;;;6.70;80.10;;;;;;5049870;28;20052;-67
2022/03/30 06:17:00;;;;;;;5.53;2.30;;;6.80;79.80;;;;;;5049782;28;20037;-71
2022/03/30 06:19:26;;;;;;;4.07;2.58;;;6.80;79.50;;;;;;5050596;28;20029;-69
2022/03/30 06:21:52;;;;;;;3.90;1.67;;;6.90;79.40;;;;;;5050185;28;20049;-69
2022/03/30 06:24:17;;;;;;;5.32;1.90;;;6.90;79.20;;;;;;5049572;28;20045;-69
2022/03/30 06:26:43;;;;;;;5.60;1.83;;;6.90;78.90;;;;;;5049876;28;20461;-69
2022/03/30 06:29:10;;;;;;;3.42;2.45;;;6.90;78.80;;;;;;5050645;28;20071;-69
2022/03/30 06:31:36;;;;;;;4.13;1.70;;;6.90;78.60;;;;;;5049661;28;20063;-69
2022/03/30 06:34:02;;;;;;;4.90;2.00;;;6.80;78.60;;;;;;5050078;28;20084;-68
2022/03/30 06:36:29;;;;;;;3.83;1.90;;;6.80;78.60;;;;;;5049182;28;20133;-68
2022/03/30 06:38:55;;;;;;;7.93;2.35;;;6.80;78.60;;;;;;5050150;28;20053;-69
2022/03/30 06:41:21;;;;;;;4.80;2.85;;;6.80;78.60;;;;;;5049836;28;20049;-69
2022/03/30 06:43:47;;;;;;;5.93;2.50;;;6.80;78.60;;;;;;5048577;28;20076;-69
2022/03/30 06:46:18;;;;;;;7.82;2.95;;;6.80;78.50;;;;;;5047275;28;20509;-69
2022/03/30 06:48:47;;;;;;;5.78;2.05;;;6.90;78.60;;;;;;5046951;28;20477;-69
2022/03/30 06:51:14;;;;;;;4.97;2.40;;;6.90;78.50;;;;;;5056280;28;20037;-70
2022/03/30 06:53:41;;;;;;;5.35;2.53;;;7.10;79.20;;;;;;5053980;28;20096;-72
2022/03/30 06:56:08;;;;;;;4.43;2.30;;;7.10;78.60;;;;;;5063360;28;20056;-70
2022/03/30 06:58:34;;;;;;;8.88;2.80;;;7.10;78.30;;;;;;5070107;28;20045;-69
2022/03/30 07:01:00;;;;;;;3.95;1.90;;;7.10;78.10;;;;;;5054938;28;20075;-69
2022/03/30 07:03:27;;;;;;;4.30;2.10;;;7.10;78.00;;;;;;5047436;28;20553;-70
2022/03/30 07:05:56;;;;;;;3.13;1.90;;;7.10;77.90;;;;;;5046919;28;20044;-69
2022/03/30 07:11:06;;;;;;;8.25;2.42;;;7.10;77.60;;;;;;5054032;28;20041;-69
2022/03/30 07:13:32;;;;;;;2.72;1.77;;;7.10;77.50;;;;;;5056025;28;20055;-69
2022/03/30 07:15:59;;;;;;;6.07;1.95;;;7.10;77.20;;;;;;5062498;28;20041;-68
2022/03/30 07:18:25;;;;;;;5.50;1.77;;;7.10;77.10;;;;;;5049606;28;20567;-67
2022/03/30 07:20:51;;;;;;;10.52;2.17;;;7.10;77.10;;;;;;5049422;28;20577;-67
2022/03/30 07:23:18;;;;;;;4.05;1.40;;;7.10;76.90;;;;;;5054681;28;20040;-66
2022/03/30 07:25:44;;;;;;;8.95;1.92;;;7.20;76.70;;;;;;5053068;28;20055;-66
2022/03/30 07:28:10;;;;;;;2.78;1.40;;;7.20;76.30;;;;;;5049831;28;20028;-66
2022/03/30 07:30:37;;;;;;;8.05;1.27;;;7.20;76.00;;;;;;5055553;28;20044;-67
2022/03/30 07:33:02;;;;;;;4.95;1.25;;;7.20;75.80;;;;;;5048880;28;20413;-67
2022/03/30 07:35:29;;;;;;;7.43;1.52;;;7.20;75.40;;;;;;5049878;28;20041;-66
2022/03/30 07:37:55;;;;;;;5.80;1.65;;;7.30;74.90;;;;;;5048660;28;20163;-65
2022/03/30 07:40:22;;;;;;;5.82;1.42;;;7.30;74.70;;;;;;5065110;28;20528;-66
2022/03/30 07:42:48;;;;;;;6.80;1.60;;;7.20;73.90;;;;;;5059407;28;20072;-66
2022/03/30 07:45:15;;;;;;;4.35;1.50;;;7.30;73.60;;;;;;5053900;28;20527;-66
2022/03/30 07:47:41;;;;;;;6.60;1.58;;;7.30;73.70;;;;;;5051810;28;20507;-67
2022/03/30 07:50:08;;;;;;;7.78;1.40;;;7.20;73.40;;;;;;5050599;28;20041;-66
2022/03/30 07:52:34;;;;;;;6.70;1.45;;;7.30;73.30;;;;;;5049670;28;20049;-67
2022/03/30 07:55:00;;;;;;;6.55;1.63;;;7.30;72.80;;;;;;5048641;28;20402;-70
2022/03/30 07:57:29;;;;;;;5.75;1.45;;;7.30;72.80;;;;;;5044062;28;20037;-67
2022/03/30 07:59:59;;;;;;;9.25;1.63;;;7.40;72.30;;;;;;5031379;28;20069;-67
2022/03/30 08:02:25;;;;;;;4.32;1.10;;;7.40;72.00;;;;;;5046769;28;20047;-66
2022/03/30 08:04:51;;;;;;;6.30;1.80;;;7.50;71.90;;;;;;5041634;28;20041;-66
2022/03/30 08:07:18;;;;;;;3.75;1.30;;;7.50;71.20;;;;;;5045242;28;20140;-67
2022/03/30 08:09:44;;;;;;;5.55;0.82;;;7.50;71.10;;;;;;5051903;28;20131;-67
2022/03/30 08:12:11;;;;;;;3.72;1.00;;;7.50;71.40;;;;;;5051554;28;20577;-67
2022/03/30 08:14:38;;;;;;;6.15;0.98;;;7.60;71.10;;;;;;5048695;28;20368;-67
2022/03/30 08:17:05;;;;;;;5.93;1.30;;;7.60;70.50;;;;;;5047665;28;20087;-67
2022/03/30 08:19:30;;;;;;;3.15;0.77;;;7.60;70.10;;;;;;5057238;28;20140;-67
2022/03/30 08:24:46;;;;;;;6.03;1.75;;;7.80;68.40;;;;;;5066365;28;20508;-67
2022/03/30 08:27:18;;;;;;;4.82;0.95;;;7.80;68.10;;;;;;5047602;28;20040;-67
2022/03/30 08:29:44;;;;;;;6.88;1.10;;;7.60;68.80;;;;;;5044619;28;20053;-67
2022/03/30 08:32:12;;;;;;;6.63;1.30;;;7.70;68.70;;;;;;5054098;28;20062;-67
2022/03/30 08:34:39;;;;;;;4.20;0.98;;;7.70;68.00;;;;;;5047680;28;20062;-69
2022/03/30 08:37:05;;;;;;;6.95;1.17;;;7.70;67.40;;;;;;5050660;28;20387;-70
2022/03/30 08:39:31;;;;;;;3.80;1.10;;;7.60;67.20;;;;;;5047609;28;20037;-69
2022/03/30 08:41:57;;;;;;;9.00;1.27;;;7.60;67.40;;;;;;5047444;28;20048;-69
2022/03/30 08:44:22;;;;;;;4.82;0.77;;;7.60;67.80;;;;;;5049255;28;20051;-70
2022/03/30 08:46:48;;;;;;;6.75;1.10;;;7.70;67.80;;;;;;5048212;28;20045;-68
2022/03/30 08:49:15;;;;;;;5.13;1.25;;;7.70;67.90;;;;;;5049283;28;20417;-68
2022/03/30 08:51:47;;;;;;;5.53;1.00;;;7.90;68.00;;;;;;5048530;28;20072;-69
2022/03/30 08:54:14;;;;;;;7.70;1.17;;;7.90;68.50;;;;;;5048828;28;20052;-70
2022/03/30 08:56:40;;;;;;;3.22;0.65;;;7.80;69.10;;;;;;5048394;28;20049;-69
2022/03/30 08:59:08;;;;;;;4.90;1.67;;;7.90;68.50;;;;;;5050301;28;20048;-67
2022/03/30 09:01:39;;;;;;;5.80;1.20;;;7.90;68.30;;;;;;5057192;28;20476;-68
2022/03/30 09:04:09;;;;;;;5.10;0.90;;;7.80;68.00;;;;;;5048406;28;20170;-67
2022/03/30 09:06:49;;;;;;;3.55;0.85;;;7.80;67.40;;;;;;5047984;28;20102;-68
2022/03/30 09:09:18;;;;;;;7.85;0.70;;;7.90;68.10;;;;;;5051188;28;20063;-67
2022/03/30 09:11:53;;;;;;;5.72;1.08;;;7.80;68.30;;;;;;5050890;28;20327;-68
2022/03/30 09:14:20;;;;;;;4.53;1.02;;;7.70;68.60;;;;;;5045040;28;20078;-68
2022/03/30 09:16:47;;;;;;;8.70;1.70;;;7.80;69.00;;;;;;5061418;28;20036;-68
2022/03/30 09:19:15;;;;;;;7.43;1.30;;;7.90;68.90;;;;;;5052174;28;20044;-68
2022/03/30 09:21:48;;;;;;;8.30;1.30;;;7.90;68.80;;;;;;5060863;28;20037;-68
2022/03/30 09:24:17;;;;;;;6.88;1.25;;;7.90;69.10;;;;;;5046189;28;20048;-68
2022/03/30 09:26:43;;;;;;;8.60;1.90;;;7.90;69.30;;;;;;5062833;28;20516;-68
2022/03/30 09:29:09;;;;;;;1.98;0.68;;;7.80;69.20;;;;;;5053624;28;20059;-68
2022/03/30 09:31:36;;;;;;;7.35;1.17;;;7.90;69.30;;;;;;5060249;28;20174;-68
2022/03/30 09:34:04;;;;;;;4.88;0.93;;;7.90;69.30;;;;;;5052580;28;20052;-68
2022/03/30 09:36:32;;;;;;;2.78;0.70;;;7.90;69.00;;;;;;5051222;28;20055;-69
2022/03/30 09:38:58;;;;;;;3.30;1.10;;;8.00;67.70;;;;;;5053435;28;20060;-68
2022/03/30 09:41:24;;;;;;;4.20;0.75;;;7.90;66.90;;;;;;5051165;28;20063;-68
2022/03/30 09:44:02;;;;;;;2.15;0.50;;;7.80;67.00;;;;;;5050453;28;20504;-68
2022/03/30 09:46:28;;;;;;;7.95;1.05;;;7.90;66.70;;;;;;5050834;28;20048;-68
2022/03/30 09:48:54;;;;;;;8.50;1.45;;;7.80;66.70;;;;;;5052810;28;20052;-68
2022/03/30 09:51:22;;;;;;;4.78;0.70;;;7.80;66.90;;;;;;5032197;28;20071;-69
2022/03/30 09:53:49;;;;;;;8.93;1.92;;;7.80;67.10;;;;;;5048922;28;20049;-68
2022/03/30 09:56:18;;;;;;;5.30;0.88;;;8.00;66.30;;;;;;5050390;28;20037;-68
2022/03/30 09:58:45;;;;;;;6.40;0.98;;;8.00;65.50;;;;;;5050039;28;20505;-68
2022/03/30 10:01:19;;;;;;;2.03;0.65;;;8.00;65.50;;;;;;5050253;28;20037;-68
2022/03/30 10:04:08;;;;;;;3.20;0.70;;;8.10;65.70;;;;;;5050094;28;20049;-68
2022/03/30 10:06:36;;;;;;;5.20;1.17;;;8.20;65.70;;;;;;5049342;28;20404;-68
2022/03/30 10:09:03;;;;;;;7.47;1.88;;;8.30;65.60;;;;;;5050836;28;20048;-68
2022/03/30 10:11:29;;;;;;;2.70;0.68;;;8.40;65.70;;;;;;5050185;28;20076;-68
2022/03/30 10:14:05;;;;;;;2.67;0.65;;;8.60;64.50;;;;;;5049657;28;20049;-68
2022/03/30 10:16:31;;;;;;;5.15;1.38;;;8.60;63.70;;;;;;5050139;28;20053;-67
2022/03/30 10:18:56;;;;;;;4.63;0.80;;;8.50;63.20;;;;;;5049117;28;20044;-67
2022/03/30 10:21:36;;;;;;;5.38;1.05;;;8.40;62.50;;;;;;5052239;28;20574;-68
2022/03/30 10:24:27;;;;;;;2.88;0.95;;;8.60;63.20;;;;;;5046457;28;20131;-68
2022/03/30 10:27:14;;;;;;;5.40;1.58;;;8.60;63.40;;;;;;5040984;28;20055;-68
2022/03/30 10:29:54;;;;;;;9.90;1.73;;;8.60;62.70;;;;;;5049652;28;20087;-67
2022/03/30 10:32:24;;;;;;;5.25;1.90;;;8.70;61.90;;;;;;5048058;28;20191;-68
2022/03/30 10:35:02;;;;;;;9.52;1.85;;;8.80;62.20;;;;;;5049636;28;20492;-68
2022/03/30 10:37:43;;;;;;;2.55;1.00;;;9.00;61.60;;;;;;5050351;28;20044;-68
2022/03/30 10:40:09;;;;;;;5.22;2.05;;;9.10;61.00;;;;;;5055017;28;20398;-68
2022/03/30 10:42:47;;;;;;;4.55;2.30;;;9.20;59.50;;;;;;5050461;28;20049;-68
2022/03/30 10:45:25;;;;;;;6.18;1.65;;;9.20;58.80;;;;;;5050032;28;20048;-68
2022/03/30 10:48:22;;;;;;;7.15;1.73;;;9.30;57.30;;;;;;5050516;28;20049;-67
2022/03/30 10:50:52;;;;;;;4.03;1.35;;;9.20;57.90;;;;;;5050069;28;20072;-68
2022/03/30 10:53:35;;;;;;;6.35;1.48;;;9.20;57.50;;;;;;5050229;28;20048;-68
2022/03/30 10:56:07;;;;;;;7.90;1.50;;;9.10;57.70;;;;;;5050488;28;20086;-68
2022/03/30 10:58:34;;;;;;;2.88;0.88;;;9.10;57.80;;;;;;5051171;28;20048;-67
2022/03/30 11:01:18;;;;;;;3.05;0.70;;;9.10;56.90;;;;;;5050336;28;20033;-68
2022/03/30 11:04:10;;;;;;;5.18;0.88;;;9.00;56.40;;;;;;5049348;28;20045;-67
2022/03/30 11:06:42;;;;;;;6.75;1.58;;;9.00;56.30;;;;;;5053632;28;20140;-68
2022/03/30 11:09:25;;;;;;;2.00;0.80;;;9.10;55.70;;;;;;5050331;28;20044;-69
2022/03/30 11:12:13;;;;;;;3.50;1.48;;;9.20;54.60;;;;;;5048835;28;20514;-69
2022/03/30 11:14:43;;;;;;;5.43;1.48;;;9.20;54.40;;;;;;5050607;28;20099;-68
2022/03/30 11:17:13;;;;;;;4.65;1.05;;;9.30;54.60;;;;;;5030648;28;20037;-69
2022/03/30 11:19:49;;;;;;;7.05;0.68;;;9.30;55.80;;;;;;5047100;28;20048;-69
2022/03/30 11:22:16;;;;;;;4.20;1.05;;;9.50;55.10;;;;;;5061850;28;20059;-69
2022/03/30 11:24:43;;;;;;;2.05;0.70;;;9.50;54.10;;;;;;5063842;28;20045;-69
2022/03/30 11:27:09;;;;;;;5.95;0.60;;;9.50;54.50;;;;;;5061766;28;20043;-69
2022/03/30 11:29:52;;;;;;;8.00;1.30;;;9.50;54.60;;;;;;5052056;28;20041;-68
2022/03/30 11:32:24;;;;;;;6.07;0.68;;;9.60;54.90;;;;;;5057906;28;20114;-69
2022/03/30 11:34:54;;;;;;;3.63;0.63;;;9.70;56.00;;;;;;5035620;28;20052;-69
2022/03/30 11:37:28;;;;;;;5.22;1.00;;;9.80;55.20;;;;;;5049491;28;20098;-69
2022/03/30 11:40:08;;;;;;;2.85;0.60;;;9.90;54.90;;;;;;5047398;28;20053;-68
2022/03/30 11:42:43;;;;;;;3.67;0.80;;;10.10;53.70;;;;;;5050029;28;20044;-67
2022/03/30 11:45:16;;;;;;;5.28;0.85;;;10.10;52.40;;;;;;5049209;28;20064;-69
2022/03/30 11:47:46;;;;;;;3.47;0.82;;;10.00;51.30;;;;;;5046426;28;20051;-65
2022/03/30 11:50:14;;;;;;;1.77;0.40;;;9.80;51.50;;;;;;5046922;28;20045;-67
2022/03/30 11:52:42;;;;;;;2.13;0.60;;;9.70;51.90;;;;;;5047556;28;20057;-66
2022/03/30 11:55:08;;;;;;;4.97;0.65;;;9.70;51.90;;;;;;5048794;28;20702;-67
2022/03/30 11:57:41;;;;;;;5.18;0.90;;;9.70;50.60;;;;;;5045964;28;20048;-68
2022/03/30 12:00:09;;;;;;;7.47;2.75;;;9.80;50.80;;;;;;5047363;28;20508;-66
2022/03/30 12:02:42;;;;;;;9.65;2.50;;;9.90;50.80;;;;;;5047777;28;20074;-67
2022/03/30 12:05:09;;;;;;;7.25;2.22;;;9.90;51.00;;;;;;5047955;28;20501;-67
2022/03/30 12:07:38;;;;;;;9.63;2.65;;;9.80;51.20;;;;;;5033725;28;20049;-68
2022/03/30 12:10:06;;;;;;;10.18;1.95;;;9.80;51.80;;;;;;5030040;28;20139;-67
2022/03/30 12:12:36;;;;;;;2.72;0.63;;;10.00;51.40;;;;;;5045152;28;20124;-67
2022/03/30 12:15:11;;;;;;;11.20;1.45;;;9.90;51.50;;;;;;5047863;28;20072;-67
2022/03/30 12:17:37;;;;;;;3.75;1.35;;;9.80;52.50;;;;;;5047154;28;20048;-68
2022/03/30 12:20:05;;;;;;;3.20;1.27;;;9.90;53.40;;;;;;5048338;28;20084;-66
2022/03/30 12:22:32;;;;;;;6.25;0.90;;;9.90;53.60;;;;;;5028104;28;20041;-70
2022/03/30 12:24:58;;;;;;;6.03;0.68;;;10.00;52.10;;;;;;5046599;28;20174;-69
2022/03/30 12:27:24;;;;;;;4.07;1.08;;;9.90;52.40;;;;;;5047313;28;20124;-69
2022/03/30 12:29:55;;;;;;;2.80;0.80;;;9.80;51.90;;;;;;5046985;28;20048;-69
2022/03/30 12:32:24;;;;;;;1.52;0.45;;;9.80;52.00;;;;;;5046946;28;20090;-68
2022/03/30 12:35:12;;;;;;;6.07;0.75;;;9.70;52.90;;;;;;5047021;28;20075;-67
2022/03/30 12:37:41;;;;;;;4.53;0.90;;;9.80;53.40;;;;;;5047613;28;20041;-67
2022/03/30 12:40:20;;;;;;;5.95;1.08;;;9.90;53.40;;;;;;5029683;28;20136;-67
2022/03/30 12:42:48;;;;;;;4.53;0.85;;;10.00;52.00;;;;;;5047524;28;20124;-69
2022/03/30 12:45:16;;;;;;;7.20;1.00;;;9.80;51.80;;;;;;5050725;28;20041;-66
2022/03/30 12:47:51;;;;;;;3.13;0.63;;;9.70;52.80;;;;;;5049735;28;20048;-68
2022/03/30 12:50:27;;;;;;;5.63;1.02;;;9.70;53.40;;;;;;5048380;28;20033;-67
2022/03/30 12:52:53;;;;;;;5.95;0.73;;;9.80;52.30;;;;;;5049238;28;20403;-67
2022/03/30 12:55:32;;;;;;;5.85;0.80;;;9.70;52.10;;;;;;5051044;28;20148;-67
2022/03/30 12:58:02;;;;;;;2.75;0.40;;;9.70;52.00;;;;;;5049582;28;20041;-68
2022/03/30 13:00:34;;;;;;;5.75;0.90;;;9.60;52.10;;;;;;5050893;28;20052;-68
2022/03/30 13:03:06;;;;;;;6.68;1.05;;;9.50;52.20;;;;;;5049735;28;20510;-69
2022/03/30 13:05:32;;;;;;;9.20;1.17;;;9.50;52.50;;;;;;5049175;28;20057;-67